createdAt,value
2019-05-23T09:42:53.948Z,19.16
2019-05-23T10:07:39.468Z,19.18
2019-05-23T11:02:55.448Z,21.51
2019-05-23T11:23:26.712Z,19.37
2019-05-23T12:10:20.862Z,21.24
2019-05-23T12:25:23.281Z,21.36
2019-05-23T12:40:20.596Z,20.85
2019-05-23T12:55:20.853Z,21.56
2019-05-23T13:10:24.292Z,22.97
2019-05-23T13:25:20.738Z,20.65
2019-05-23T13:40:20.781Z,20.41
2019-05-23T13:55:20.804Z,22.15
2019-05-23T14:10:20.545Z,21.79
2019-05-23T14:25:20.667Z,21.71
2019-05-23T14:40:20.673Z,22.44
2019-05-23T14:55:20.746Z,20.81
2019-05-23T15:10:20.725Z,21.29
2019-05-23T15:25:20.821Z,21.87
2019-05-23T15:40:20.963Z,20.95
2019-05-23T15:55:21.282Z,21.46
2019-05-23T16:10:21.367Z,21.82
2019-05-23T16:25:21.554Z,20.69
2019-05-23T16:40:22.635Z,20.72
2019-05-23T16:55:22.103Z,20.31
2019-05-23T17:10:22.098Z,19.58
2019-05-23T17:25:22.338Z,19.35
2019-05-23T17:40:25.346Z,19.18
2019-05-23T17:55:22.535Z,18.70
2019-05-23T18:10:22.858Z,18.14
2019-05-23T18:25:22.529Z,17.82
2019-05-23T18:40:22.488Z,17.53
2019-05-23T18:55:22.664Z,16.80
2019-05-23T19:10:22.509Z,16.10
2019-05-23T20:21:06.943Z,12.80
2019-05-23T20:44:09.654Z,12.08
2019-05-23T20:59:09.558Z,11.64
2019-05-23T21:14:09.401Z,11.35
2019-05-23T21:29:09.489Z,10.98
2019-05-23T21:44:09.466Z,10.65
2019-05-23T21:59:09.463Z,10.35
2019-05-23T22:14:09.521Z,10.23
2019-05-23T22:29:09.436Z,10.23
2019-05-23T22:44:09.642Z,10.15
2019-05-23T22:59:09.535Z,9.93
2019-05-23T23:14:09.451Z,9.52
2019-05-23T23:29:09.465Z,9.17
2019-05-23T23:44:09.618Z,9.09
2019-05-23T23:59:09.580Z,8.69
